<?xml version="1.0" encoding="UTF-8" standalone="no" ?>
<gpx xmlns="http://www.topografix.com/GPX/1/1" xmlns:xsi="http://www.w3.org/2001/XMLSchema-instance" xsi:schemaLocation="http://www.topografix.com/GPX/1/1 http://www.topografix.com/GPX/1/1/gpx.xsd" version="1.1" creator="VisuGPX - https://www.visugpx.com">
  <metadata>
    <name>Etape 2 Férel - Les Moûtiers</name>
    <desc><![CDATA[Randonnée vélo Rennes - Hendaye, empruntant la Vélodyssée à partir de Saint-Brevin-Les-Pins. ]]></desc>
  </metadata>
  <trk>
    <name><![CDATA[Sequence 24]]></name>
    <trkseg>
      <trkpt lat="47.15709" lon="-2.17308">
        <ele>7</ele>
        <time>2016-07-22T12:49:00Z</time>
      </trkpt>
      <trkpt lat="47.1571" lon="-2.17279">
        <ele>4</ele>
        <time>2016-07-22T12:49:05Z</time>
      </trkpt>
      <trkpt lat="47.15713" lon="-2.17242">
        <ele>3</ele>
        <time>2016-07-22T12:49:10Z</time>
      </trkpt>
      <trkpt lat="47.1572" lon="-2.172">
        <ele>1</ele>
        <time>2016-07-22T12:49:15Z</time>
      </trkpt>
      <trkpt lat="47.15726" lon="-2.17162">
        <ele>1</ele>
        <time>2016-07-22T12:49:20Z</time>
      </trkpt>
      <trkpt lat="47.15734" lon="-2.17109">
        <ele>5</ele>
        <time>2016-07-22T12:49:28Z</time>
      </trkpt>
      <trkpt lat="47.15735" lon="-2.17095">
        <ele>6</ele>
        <time>2016-07-22T12:49:30Z</time>
      </trkpt>
      <trkpt lat="47.1574" lon="-2.17063">
        <ele>7</ele>
        <time>2016-07-22T12:49:35Z</time>
      </trkpt>
      <trkpt lat="47.15744" lon="-2.17028">
        <ele>7</ele>
        <time>2016-07-22T12:49:40Z</time>
      </trkpt>
      <trkpt lat="47.1575" lon="-2.17007">
        <ele>8</ele>
        <time>2016-07-22T12:49:45Z</time>
      </trkpt>
      <trkpt lat="47.15751" lon="-2.16963">
        <ele>10</ele>
        <time>2016-07-22T12:49:53Z</time>
      </trkpt>
      <trkpt lat="47.15749" lon="-2.1695">
        <ele>9</ele>
        <time>2016-07-22T12:49:55Z</time>
      </trkpt>
      <trkpt lat="47.15737" lon="-2.16917">
        <ele>13</ele>
        <time>2016-07-22T12:50:00Z</time>
      </trkpt>
      <trkpt lat="47.15723" lon="-2.16885">
        <ele>11</ele>
        <time>2016-07-22T12:50:05Z</time>
      </trkpt>
      <trkpt lat="47.157" lon="-2.16834">
        <ele>12</ele>
        <time>2016-07-22T12:50:13Z</time>
      </trkpt>
      <trkpt lat="47.15695" lon="-2.1682">
        <ele>11</ele>
        <time>2016-07-22T12:50:15Z</time>
      </trkpt>
      <trkpt lat="47.15681" lon="-2.16788">
        <ele>11</ele>
        <time>2016-07-22T12:50:20Z</time>
      </trkpt>
      <trkpt lat="47.15666" lon="-2.16757">
        <ele>11</ele>
        <time>2016-07-22T12:50:25Z</time>
      </trkpt>
      <trkpt lat="47.15653" lon="-2.16725">
        <ele>13</ele>
        <time>2016-07-22T12:50:30Z</time>
      </trkpt>
      <trkpt lat="47.15638" lon="-2.16687">
        <ele>12</ele>
        <time>2016-07-22T12:50:36Z</time>
      </trkpt>
      <trkpt lat="47.15626" lon="-2.16662">
        <ele>15</ele>
        <time>2016-07-22T12:50:40Z</time>
      </trkpt>
      <trkpt lat="47.15615" lon="-2.16629">
        <ele>15</ele>
        <time>2016-07-22T12:50:45Z</time>
      </trkpt>
      <trkpt lat="47.15604" lon="-2.16601">
        <ele>14</ele>
        <time>2016-07-22T12:50:50Z</time>
      </trkpt>
      <trkpt lat="47.15595" lon="-2.16575">
        <ele>12</ele>
        <time>2016-07-22T12:50:55Z</time>
      </trkpt>
      <trkpt lat="47.15585" lon="-2.16544">
        <ele>12</ele>
        <time>2016-07-22T12:51:00Z</time>
      </trkpt>
      <trkpt lat="47.15572" lon="-2.16535">
        <ele>12</ele>
        <time>2016-07-22T12:51:08Z</time>
      </trkpt>
      <trkpt lat="47.1557" lon="-2.16537">
        <ele>12</ele>
        <time>2016-07-22T12:51:10Z</time>
      </trkpt>
    </trkseg>
  </trk>
</gpx>